createdAt,value
2023-03-05T00:03:17.337Z,6.20
2023-03-05T00:08:19.080Z,7.20
2023-03-05T00:13:20.608Z,6.30
2023-03-05T00:18:22.900Z,6.60
2023-03-05T00:23:24.537Z,4.80
2023-03-05T00:28:26.099Z,6.90
2023-03-05T00:33:27.774Z,5.90
2023-03-05T00:38:29.426Z,5.90
2023-03-05T00:43:31.010Z,4.00
2023-03-05T00:48:32.579Z,4.60
2023-03-05T00:53:34.225Z,6.40
2023-03-05T00:58:35.757Z,4.80
2023-03-05T01:03:37.496Z,5.20
2023-03-05T01:08:39.941Z,5.70
2023-03-05T01:13:41.716Z,7.70
2023-03-05T01:18:43.296Z,4.10
2023-03-05T01:23:44.888Z,4.00
2023-03-05T01:28:46.470Z,8.00
2023-03-05T01:33:48.061Z,4.10
2023-03-05T01:38:49.582Z,5.60
2023-03-05T01:43:52.955Z,5.70
2023-03-05T01:49:03.346Z,3.90
2023-03-05T01:54:07.528Z,4.80
2023-03-05T01:59:09.660Z,8.30
2023-03-05T02:04:16.284Z,4.10
2023-03-05T02:09:23.368Z,4.60
2023-03-05T02:14:25.916Z,4.40
2023-03-05T02:19:27.592Z,3.10
2023-03-05T02:24:35.895Z,3.90
2023-03-05T02:29:41.362Z,4.10
2023-03-05T02:34:43.013Z,4.30
2023-03-05T02:39:44.557Z,5.90
2023-03-05T02:44:46.060Z,4.40
2023-03-05T02:49:47.645Z,5.50
2023-03-05T02:54:50.221Z,4.90
2023-03-05T02:59:51.786Z,7.30
2023-03-05T03:04:53.365Z,4.50
2023-03-05T03:09:54.884Z,4.60
2023-03-05T03:14:56.518Z,6.50
2023-03-05T03:19:58.051Z,4.30
2023-03-05T03:25:00.564Z,5.20
2023-03-05T03:30:04.792Z,4.40
2023-03-05T03:35:07.004Z,3.90
2023-03-05T03:40:09.443Z,7.80
2023-03-05T03:45:11.918Z,11.50
2023-03-05T03:50:13.471Z,5.80
2023-03-05T03:55:14.989Z,6.00
2023-03-05T04:00:17.559Z,5.30
2023-03-05T04:05:19.126Z,5.80
2023-03-05T04:10:20.641Z,7.00
2023-03-05T04:15:22.190Z,4.80
2023-03-05T04:20:23.749Z,5.30
2023-03-05T04:25:25.356Z,5.30
2023-03-05T04:30:26.855Z,5.10
2023-03-05T04:35:28.482Z,4.90
2023-03-05T04:40:31.173Z,6.50
2023-03-05T04:45:33.140Z,5.10
2023-03-05T04:50:34.740Z,4.90
2023-03-05T04:55:36.277Z,4.70
2023-03-05T05:00:37.855Z,4.00
2023-03-05T05:05:39.436Z,3.70
2023-03-05T05:10:41.522Z,3.70
2023-03-05T05:15:43.086Z,3.90
2023-03-05T05:20:44.634Z,3.90
2023-03-05T05:25:46.120Z,4.80
2023-03-05T05:30:47.611Z,4.20
2023-03-05T05:35:49.288Z,5.30
2023-03-05T05:40:50.840Z,4.80
2023-03-05T05:45:52.502Z,4.50
2023-03-05T05:50:54.156Z,5.00
2023-03-05T05:55:55.647Z,3.70
2023-03-05T06:00:57.350Z,4.60
2023-03-05T06:05:58.941Z,4.20
2023-03-05T06:11:00.429Z,8.70
2023-03-05T06:16:05.755Z,3.50
2023-03-05T06:21:09.299Z,4.70
2023-03-05T06:26:12.360Z,4.80
2023-03-05T06:31:21.966Z,4.30
2023-03-05T06:36:25.036Z,3.20
2023-03-05T06:41:29.699Z,3.70
2023-03-05T06:46:35.078Z,4.90
2023-03-05T06:51:39.390Z,3.80
2023-03-05T06:56:44.047Z,7.00
2023-03-05T07:01:45.624Z,3.60
2023-03-05T07:06:47.175Z,4.90
2023-03-05T07:11:48.691Z,3.90
2023-03-05T07:16:50.628Z,3.80
2023-03-05T07:21:52.186Z,3.80
2023-03-05T07:26:53.677Z,3.90
2023-03-05T07:31:56.034Z,4.50
2023-03-05T07:36:57.538Z,5.50
2023-03-05T07:41:59.004Z,3.60
2023-03-05T07:47:00.850Z,3.70
2023-03-05T07:52:02.417Z,4.70
2023-03-05T07:57:05.338Z,7.00
2023-03-05T08:02:07.752Z,3.80
2023-03-05T08:07:09.451Z,3.60
2023-03-05T08:12:10.996Z,5.10
2023-03-05T08:17:12.469Z,5.40
2023-03-05T08:22:16.135Z,4.40
2023-03-05T08:27:17.696Z,3.90
2023-03-05T08:32:19.320Z,5.80
2023-03-05T08:37:20.825Z,4.80
2023-03-05T08:42:23.525Z,4.90
2023-03-05T08:47:26.782Z,3.70
2023-03-05T08:52:28.294Z,3.50
2023-03-05T08:57:29.851Z,6.60
2023-03-05T09:02:31.506Z,5.00
2023-03-05T09:07:33.092Z,4.40
2023-03-05T09:12:34.599Z,6.50
2023-03-05T09:17:41.722Z,7.30
2023-03-05T09:22:43.483Z,4.10
2023-03-05T09:27:45.733Z,4.60
2023-03-05T09:32:47.402Z,6.70
2023-03-05T09:37:48.998Z,5.20
2023-03-05T09:43:33.913Z,5.50
2023-03-05T09:48:52.077Z,4.90
2023-03-05T09:54:32.684Z,5.70
2023-03-05T09:59:47.888Z,6.40
2023-03-05T10:05:13.171Z,4.70
2023-03-05T10:10:27.557Z,5.70
2023-03-05T10:15:39.054Z,5.30
2023-03-05T10:20:55.235Z,4.50
2023-03-05T10:31:36.811Z,4.50
2023-03-05T10:36:59.896Z,3.10
2023-03-05T10:42:13.549Z,4.60
2023-03-05T10:47:24.336Z,4.30
2023-03-05T10:52:35.478Z,4.80
2023-03-05T10:57:37.001Z,4.50
2023-03-05T11:02:59.268Z,2.80
2023-03-05T11:08:00.794Z,4.90
2023-03-05T11:13:25.049Z,5.00
2023-03-05T11:18:26.859Z,4.60
2023-03-05T11:23:28.346Z,8.40
2023-03-05T11:28:36.510Z,4.90
2023-03-05T11:33:38.568Z,5.70
2023-03-05T11:38:52.890Z,6.30
2023-03-05T11:43:55.872Z,6.50
2023-03-05T11:48:58.516Z,5.90
2023-03-05T11:54:08.925Z,11.70
2023-03-05T12:04:24.654Z,6.90
2023-03-05T12:09:42.124Z,5.70
2023-03-05T12:15:25.958Z,6.80
2023-03-05T12:21:05.252Z,9.70
2023-03-05T12:26:06.748Z,7.60
2023-03-05T12:31:29.340Z,10.70
2023-03-05T12:36:38.183Z,4.60
2023-03-05T12:41:40.542Z,3.70
2023-03-05T12:46:43.662Z,3.80
2023-03-05T12:51:50.316Z,4.90
2023-03-05T12:56:53.504Z,4.50
2023-03-05T13:02:00.557Z,8.70
2023-03-05T13:07:05.348Z,9.40
2023-03-05T13:12:14.002Z,8.10
2023-03-05T13:17:41.226Z,7.20
2023-03-05T13:22:42.811Z,7.40
2023-03-05T13:27:44.576Z,7.80
2023-03-05T13:32:51.445Z,5.70
2023-03-05T13:37:53.059Z,6.40
2023-03-05T13:42:56.634Z,7.70
2023-03-05T13:48:04.296Z,6.50
2023-03-05T13:53:22.538Z,5.50
2023-03-05T13:58:53.586Z,4.70
2023-03-05T14:03:58.688Z,8.80
2023-03-05T14:09:07.679Z,7.40
2023-03-05T14:14:16.854Z,7.40
2023-03-05T14:19:44.859Z,5.10
2023-03-05T14:24:52.799Z,6.20
2023-03-05T14:29:54.633Z,5.30
2023-03-05T14:34:59.514Z,6.30
2023-03-05T14:40:05.590Z,6.40
2023-03-05T14:45:15.109Z,2.60
2023-03-05T14:50:22.430Z,6.50
2023-03-05T14:55:27.349Z,6.40
2023-03-05T15:00:28.941Z,7.70
2023-03-05T15:05:30.817Z,11.20
2023-03-05T15:10:32.493Z,7.70
2023-03-05T15:15:34.444Z,14.90
2023-03-05T15:20:36.853Z,12.60
2023-03-05T15:25:38.706Z,13.10
2023-03-05T15:30:46.783Z,10.70
2023-03-05T15:35:48.668Z,13.50
2023-03-05T15:40:50.446Z,14.50
2023-03-05T15:45:52.029Z,9.70
2023-03-05T15:50:53.575Z,10.10
2023-03-05T15:55:55.074Z,10.30
2023-03-05T16:00:56.632Z,8.40
2023-03-05T16:05:58.122Z,8.80
2023-03-05T16:11:00.588Z,7.70
2023-03-05T16:16:04.681Z,6.10
2023-03-05T16:21:06.370Z,6.90
2023-03-05T16:26:10.492Z,6.40
2023-03-05T16:31:12.034Z,6.30
2023-03-05T16:36:21.719Z,6.50
2023-03-05T16:41:24.369Z,7.20
2023-03-05T16:46:28.874Z,6.50
2023-03-05T16:51:30.858Z,7.80
2023-03-05T16:56:32.397Z,52.20
2023-03-05T17:01:33.939Z,23.20
2023-03-05T17:06:35.686Z,37.50
2023-03-05T17:11:37.199Z,28.10
2023-03-05T17:16:39.100Z,32.50
2023-03-05T17:21:42.730Z,34.60
2023-03-05T17:26:44.560Z,38.30
2023-03-05T17:31:46.846Z,42.10
2023-03-05T17:36:50.524Z,18.10
2023-03-05T17:41:52.044Z,34.80
2023-03-05T17:46:53.569Z,57.50
2023-03-05T17:51:55.624Z,33.60
2023-03-05T17:56:58.020Z,36.20
2023-03-05T18:01:59.587Z,13.20
2023-03-05T18:07:01.941Z,23.20
2023-03-05T18:12:03.753Z,16.30
2023-03-05T18:17:05.371Z,18.50
2023-03-05T18:22:06.879Z,27.90
2023-03-05T18:27:08.416Z,18.40
2023-03-05T18:32:10.009Z,18.30
2023-03-05T18:37:11.537Z,22.80
2023-03-05T18:42:14.227Z,19.00
2023-03-05T18:47:15.772Z,17.60
2023-03-05T18:52:17.242Z,28.40
2023-03-05T18:57:18.762Z,23.10
2023-03-05T19:02:20.245Z,24.00
2023-03-05T19:07:21.849Z,22.40
2023-03-05T19:12:31.697Z,23.50
2023-03-05T19:17:33.201Z,16.00
2023-03-05T19:22:34.998Z,28.40
2023-03-05T19:27:37.838Z,23.00
2023-03-05T19:32:39.542Z,24.30
2023-03-05T19:37:41.174Z,27.00
2023-03-05T19:42:42.888Z,21.90
2023-03-05T19:47:44.390Z,22.20
2023-03-05T19:52:45.915Z,28.10
2023-03-05T19:57:47.553Z,24.70
2023-03-05T20:02:49.459Z,21.30
2023-03-05T20:07:51.826Z,22.80
2023-03-05T20:12:53.394Z,18.70
2023-03-05T20:17:57.725Z,24.60
2023-03-05T20:22:59.301Z,31.80
2023-03-05T20:28:00.845Z,21.90
2023-03-05T20:33:04.165Z,22.90
2023-03-05T20:38:22.323Z,22.40
2023-03-05T20:43:25.384Z,18.10
2023-03-05T20:48:29.211Z,27.00
2023-03-05T20:53:30.740Z,24.30
2023-03-05T20:58:32.396Z,23.20
2023-03-05T21:03:34.390Z,19.70
2023-03-05T21:08:35.948Z,19.70
2023-03-05T21:13:37.620Z,19.00
2023-03-05T21:18:39.566Z,27.90
2023-03-05T21:23:41.093Z,22.50
2023-03-05T21:28:42.622Z,19.70
2023-03-05T21:33:44.549Z,15.90
2023-03-05T21:38:49.832Z,16.20
2023-03-05T21:43:51.493Z,15.30
2023-03-05T21:48:52.963Z,32.50
2023-03-05T21:53:54.534Z,25.70
2023-03-05T21:58:56.009Z,20.80
2023-03-05T22:03:57.614Z,21.50
2023-03-05T22:08:59.188Z,26.70
2023-03-05T22:14:00.704Z,16.10
2023-03-05T22:19:02.583Z,19.40
2023-03-05T22:24:04.161Z,20.90
2023-03-05T22:29:08.495Z,17.10
2023-03-05T22:34:10.723Z,16.30
2023-03-05T22:39:12.286Z,16.80
2023-03-05T22:44:13.807Z,17.90
2023-03-05T22:49:15.361Z,16.00
2023-03-05T22:54:16.833Z,15.00
2023-03-05T22:59:18.380Z,16.20
2023-03-05T23:04:50.195Z,23.50
2023-03-05T23:10:19.536Z,14.90
2023-03-05T23:15:27.239Z,15.10
2023-03-05T23:20:33.074Z,17.80
2023-03-05T23:25:36.491Z,15.70
2023-03-05T23:30:39.537Z,14.00
2023-03-05T23:35:43.884Z,17.80
2023-03-05T23:40:48.391Z,19.10
2023-03-05T23:45:50.191Z,15.40
2023-03-05T23:50:52.018Z,17.50
2023-03-05T23:55:54.555Z,16.10
